Latest Weather Observations for Adelaide (West Terrace / ngayirdapira)

IDS60901

Issued at 9:01 am CST Thursday 1 October 2020 (issued every 10 minutes, with the page automatically refreshed every 10 minutes)

About weather observations | Map of Adelaide area stations | Latest observations for Adelaide area | Other Formats
Station Details ID: 023000 Name: ADELAIDE (WEST TERRACE / NGAYIRDAPIRA) Lat: -34.93 Lon: 138.58 Height: 29.32 m
Data from the previous 72 hours. | See also: Recent months at Adelaide (West Terrace / ngayirdapira)
Date/Time
CST
Temp
°C
App
Temp
°C
Dew
Point
°C
Rel
Hum
%
Delta-T
°C
Wind Press
QNH
hPa
Press
MSL
hPa
Rain since
9am
mm
Dir  Spd
km/h
Gust
km/h
Spd
kts
Gust
kts
01/09:00am 13.4 11.0 8.5 72 2.4 N 11 17 6 9 1019.3 1019.3 1.2
01/08:30am 12.7 10.0 8.8 77 1.9 N 13 17 7 9 1019.0 1019.0 1.2
01/08:00am 11.7 9.2 8.4 80 1.6 N 11 17 6 9 1018.9 1018.9 1.2
01/07:30am 10.1 7.8 7.3 83 1.3 NE 9 11 5 6 1018.6 1018.6 1.2
01/07:00am 8.9 6.9 7.0 88 0.9 NE 7 11 4 6 1018.1 1018.1 1.2
01/06:30am 7.5 5.5 6.4 93 0.5 NE 6 9 3 5 1017.9 1017.9 1.2
01/06:00am 7.2 5.2 6.1 93 0.5 NE 6 11 3 6 1017.7 1017.7 1.2
01/05:30am 7.2 5.1 6.0 92 0.5 NE 6 9 3 5 1017.4 1017.4 1.2
01/05:00am 7.9 6.7 6.5 91 0.6 NE 2 7 1 4 1017.1 1017.1 1.2
01/04:30am 8.7 6.9 7.0 89 0.8 NE 6 11 3 6 1016.8 1016.8 1.2
01/04:00am 8.6 6.6 7.1 90 0.7 NE 7 11 4 6 1016.5 1016.5 1.2
01/03:30am 8.4 6.6 7.3 93 0.5 NE 6 11 3 6 1016.4 1016.4 1.2
01/03:00am 7.9 5.9 7.0 94 0.4 NE 7 9 4 5 1016.2 1016.2 1.2
01/02:30am 8.1 7.5 7.3 95 0.4 CALM 0 7 0 4 1016.2 1016.2 1.2
01/02:00am 8.2 7.6 7.4 95 0.4 CALM 0 0 0 0 1016.2 1016.2 1.2
01/01:30am 8.8 8.3 7.9 94 0.4 CALM 0 0 0 0 1016.4 1016.4 1.2
01/01:00am 8.8 8.2 7.6 92 0.6 CALM 0 0 0 0 1016.6 1016.6 1.2
01/12:30am 9.0 8.4 7.3 89 0.8 CALM 0 0 0 0 1016.3 1016.3 1.2
01/12:00am 10.4 10.1 8.7 89 0.8 CALM 0 0 0 0 1016.5 1016.5 1.2
 
Date/Time
CST
Temp
°C
App
Temp
°C
Dew
Point
°C
Rel
Hum
%
Delta-T
°C
Wind Press
QNH
hPa
Press
MSL
hPa
Rain since
9am
mm
Dir  Spd
km/h
Gust
km/h
Spd
kts
Gust
kts
30/11:30pm 11.0 10.7 8.6 85 1.2 CALM 0 2 0 1 1016.5 1016.5 1.2
30/11:00pm 12.0 10.0 8.5 79 1.7 WSW 9 13 5 7 1016.7 1016.7 1.2
30/10:30pm 12.0 9.7 7.5 74 2.2 WSW 9 13 5 7 1016.5 1016.5 1.2
30/10:00pm 12.6 10.1 8.1 74 2.2 WSW 11 17 6 9 1016.5 1016.5 1.2
30/09:30pm 12.5 10.2 7.6 72 2.4 WSW 9 15 5 8 1016.3 1016.3 1.2
30/09:00pm 12.9 11.0 9.0 77 2.0 W 9 15 5 8 1016.1 1016.1 1.2
30/08:30pm 13.5 11.6 10.5 82 1.6 W 11 17 6 9 1016.0 1016.0 1.2
30/08:00pm 14.0 12.4 11.7 86 1.2 W 11 19 6 10 1015.6 1015.6 1.2
30/07:30pm 14.0 12.9 12.0 88 1.1 W 9 13 5 7 1015.1 1015.1 1.2
30/07:00pm 13.9 12.8 12.1 89 1.0 W 9 15 5 8 1014.4 1014.4 1.2
30/06:30pm 14.0 13.8 12.9 93 0.6 W 6 9 3 5 1014.1 1014.1 1.2
30/06:28pm 14.0 13.6 12.9 93 0.6 W 7 9 4 5 1014.1 1014.1 1.2
30/06:00pm 14.2 13.1 13.1 93 0.6 WSW 11 17 6 9 1013.8 1013.8 1.2
30/05:38pm 14.2 12.9 12.6 90 0.9 WSW 11 19 6 10 1013.6 1013.6 1.0
30/05:30pm 14.5 13.3 12.7 89 1.0 SW 11 15 6 8 1013.5 1013.5 0.6
30/05:00pm 14.6 13.7 12.5 87 1.1 WSW 9 17 5 9 1013.0 1013.0 0.4
30/04:30pm 14.1 13.0 12.0 87 1.1 WSW 9 15 5 8 1012.6 1012.6 0.4
30/04:00pm 15.0 12.7 13.0 88 1.1 W 17 32 9 17 1012.6 1012.6 0.4
30/03:30pm 16.3 13.7 11.9 75 2.4 WNW 17 26 9 14 1012.7 1012.7 0.0
30/03:00pm 15.5 13.2 11.7 78 2.1 WNW 15 24 8 13 1012.7 1012.7 0.0
30/02:30pm 15.4 12.2 11.4 77 2.1 WNW 19 30 10 16 1012.7 1012.7 0.0
30/02:00pm 15.7 12.6 11.5 76 2.3 WNW 19 26 10 14 1012.6 1012.6 0.0
30/01:30pm 15.7 12.4 10.9 73 2.6 WNW 19 30 10 16 1012.9 1012.9 0.0
30/01:00pm 15.5 11.9 10.7 73 2.5 WNW 20 32 11 17 1012.9 1012.9 0.0
30/12:30pm 14.7 11.6 10.3 75 2.3 WNW 17 26 9 14 1012.9 1012.9 0.0
30/12:00pm 14.8 11.4 10.4 75 2.3 WNW 19 30 10 16 1013.0 1013.0 0.0
30/11:30am 14.9 11.8 10.3 74 2.4 NW 17 26 9 14 1013.2 1013.2 0.0
30/11:00am 15.4 12.7 10.4 72 2.6 WNW 15 30 8 16 1013.3 1013.3 0.0
30/10:30am 16.1 12.9 10.0 67 3.2 WNW 17 26 9 14 1013.5 1013.5 0.0
30/10:00am 15.1 11.7 9.2 68 3.0 WNW 17 28 9 15 1013.4 1013.4 0.0
30/09:30am 15.1 11.9 10.1 72 2.6 WNW 17 24 9 13 1013.4 1013.4 0.0
30/09:00am 14.8 11.9 9.8 72 2.6 WNW 15 22 8 12 1013.4 1013.4 15.6
30/08:30am 14.0 11.5 9.6 75 2.3 NW 13 22 7 12 1013.2 1013.2 15.6
30/08:00am 13.6 11.8 9.3 75 2.2 WNW 9 13 5 7 1013.1 1013.1 15.6
30/07:30am 13.4 11.2 9.5 77 2.0 WNW 11 17 6 9 1013.0 1013.0 15.6
30/07:00am 13.0 11.5 9.1 77 2.0 WNW 7 13 4 7 1012.8 1012.8 15.6
30/06:30am 12.8 11.5 9.3 79 1.8 NW 6 9 3 5 1012.4 1012.4 15.6
30/06:00am 12.7 10.7 8.6 76 2.0 W 9 15 5 8 1012.1 1012.1 15.6
30/05:30am 12.7 11.4 9.9 83 1.4 WNW 7 13 4 7 1012.0 1012.0 15.6
30/05:00am 12.4 10.5 9.2 81 1.6 W 9 15 5 8 1011.6 1011.6 15.6
30/04:30am 12.5 11.6 10.6 88 1.0 W 6 9 3 5 1011.6 1011.6 15.6
30/04:00am 12.3 11.1 10.4 88 1.0 WSW 7 11 4 6 1011.6 1011.6 15.6
30/03:30am 12.6 11.3 11.3 92 0.7 W 9 19 5 10 1011.5 1011.5 15.6
30/03:08am 12.8 11.7 12.0 95 0.4 WSW 9 15 5 8 1011.7 1011.7 15.6
30/03:00am 12.9 12.3 12.3 96 0.3 WSW 7 15 4 8 1011.8 1011.8 15.6
30/02:58am 12.9 12.3 12.3 96 0.3 WSW 7 11 4 6 1011.8 1011.8 15.6
30/02:30am 12.9 11.2 12.3 96 0.3 WSW 13 20 7 11 1011.6 1011.6 15.4
30/02:00am 13.4 12.6 12.9 97 0.3 NNW 9 15 5 8 1011.6 1011.6 14.8
30/01:45am 13.3 12.8 12.8 97 0.3 N 7 13 4 7 1011.6 1011.6 14.4
30/01:32am 13.3 12.1 12.8 97 0.3 N 11 15 6 8 1011.8 1011.8 14.4
30/01:30am 13.3 12.1 12.8 97 0.3 N 11 15 6 8 1011.8 1011.8 14.4
30/01:00am 13.3 12.1 12.7 96 0.3 N 11 15 6 8 1011.9 1011.9 14.4
30/12:46am 13.3 12.4 12.5 95 0.4 N 9 13 5 7 1012.1 1012.1 14.2
30/12:30am 13.3 12.0 12.5 95 0.4 N 11 15 6 8 1012.4 1012.4 14.2
30/12:00am 13.3 12.4 12.5 95 0.4 N 9 17 5 9 1012.8 1012.8 14.2
 
Date/Time
CST
Temp
°C
App
Temp
°C
Dew
Point
°C
Rel
Hum
%
Delta-T
°C
Wind Press
QNH
hPa
Press
MSL
hPa
Rain since
9am
mm
Dir  Spd
km/h
Gust
km/h
Spd
kts
Gust
kts
29/11:30pm 13.4 11.3 12.5 94 0.5 N 15 20 8 11 1013.3 1013.3 14.2
29/11:29pm 13.4 11.7 12.5 94 0.5 N 13 20 7 11 1013.4 1013.4 14.2
29/11:19pm 13.4 11.7 12.5 94 0.5 N 13 20 7 11 1013.4 1013.4 14.2
29/11:00pm 13.5 12.2 12.4 93 0.6 N 11 17 6 9 1013.4 1013.4 14.0
29/10:48pm 13.6 11.9 12.3 92 0.7 NNE 13 19 7 10 1013.5 1013.5 14.0
29/10:30pm 13.7 12.0 12.3 91 0.8 NNE 13 19 7 10 1013.5 1013.5 14.0
29/10:00pm 13.7 12.2 11.9 89 1.0 N 11 17 6 9 1013.8 1013.8 14.0
29/09:30pm 13.9 12.8 11.9 88 1.1 N 9 15 5 8 1013.8 1013.8 14.0
29/09:00pm 14.0 12.5 12.0 88 1.1 NNE 11 19 6 10 1013.6 1013.6 14.0
29/08:30pm 14.0 12.2 12.0 88 1.1 NE 13 20 7 11 1013.6 1013.6 14.0
29/08:00pm 14.0 12.0 12.6 91 0.8 NE 15 22 8 12 1013.8 1013.8 14.0
29/07:30pm 14.1 12.9 12.8 92 0.7 NE 11 17 6 9 1013.9 1013.9 13.8
29/07:00pm 14.2 13.5 13.1 93 0.6 NNE 9 15 5 8 1014.1 1014.1 13.6
29/06:30pm 14.2 12.7 13.1 93 0.6 NE 13 17 7 9 1014.2 1014.2 13.2
29/06:00pm 14.3 13.2 13.2 93 0.6 NE 11 15 6 8 1014.1 1014.1 12.4
29/05:30pm 14.4 13.7 13.1 92 0.7 NE 9 13 5 7 1014.1 1014.1 11.8
29/05:00pm 14.3 13.5 13.0 92 0.7 NE 9 13 5 7 1014.1 1014.1 10.6
29/04:30pm 14.3 13.5 13.0 92 0.7 ENE 9 17 5 9 1014.2 1014.2 9.8
29/04:00pm 14.1 13.3 12.8 92 0.7 NE 9 13 5 7 1014.4 1014.4 9.2
29/03:30pm 14.1 13.6 12.8 92 0.7 ENE 7 11 4 6 1014.6 1014.6 8.8
29/03:00pm 13.9 13.5 13.0 94 0.5 NNE 7 11 4 6 1015.0 1015.0 8.0
29/02:59pm 13.8 13.4 12.9 94 0.5 NNE 7 11 4 6 1015.0 1015.0 8.0
29/02:30pm 13.9 12.7 12.8 93 0.6 N 11 15 6 8 1015.3 1015.3 5.8
29/02:10pm 14.4 13.1 12.6 89 1.0 N 11 19 6 10 1015.5 1015.5 1.8
29/02:00pm 14.7 12.9 12.2 85 1.4 N 13 22 7 12 1015.6 1015.6 0.8
29/01:30pm 17.2 13.2 8.4 56 4.5 NW 19 28 10 15 1015.3 1015.3 0.0
29/01:00pm 18.0 14.3 8.0 52 5.1 NW 17 28 9 15 1015.9 1015.9 0.0
29/12:30pm 18.4 14.7 8.1 51 5.3 NW 17 26 9 14 1016.3 1016.3 0.0
29/12:00pm 19.2 14.0 5.3 40 6.8 NW 22 35 12 19 1016.5 1016.5 0.0
29/11:30am 19.2 14.8 4.6 38 7.0 N 17 30 9 16 1016.6 1016.6 0.0
29/11:00am 19.0 14.5 4.0 37 7.1 N 17 30 9 16 1016.7 1016.7 0.0
29/10:30am 19.5 15.1 2.8 33 7.8 N 15 22 8 12 1016.6 1016.6 0.0
29/10:00am 19.9 14.7 2.3 31 8.1 NNE 19 28 10 15 1015.7 1015.7 0.0
29/09:30am 19.3 14.6 3.1 34 7.6 NE 17 28 9 15 1015.8 1015.8 0.0
29/09:00am 18.8 13.8 3.4 36 7.2 NE 19 32 10 17 1016.2 1016.2 0.0
29/08:30am 18.3 14.0 3.0 36 7.1 NE 15 24 8 13 1016.5 1016.5 0.0
29/08:00am 18.1 12.9 2.4 35 7.2 NE 19 26 10 14 1016.5 1016.5 0.0
29/07:30am 17.6 12.5 2.8 37 6.8 NE 19 30 10 16 1016.5 1016.5 0.0
29/07:00am 17.5 12.6 2.3 36 6.9 NE 17 26 9 14 1016.4 1016.4 0.0
29/06:30am 17.3 11.8 1.7 35 7.0 NE 20 30 11 16 1016.1 1016.1 0.0
29/06:00am 16.9 12.3 1.8 36 6.7 NE 15 24 8 13 1015.8 1015.8 0.0
29/05:30am 16.8 11.9 2.0 37 6.6 NE 17 30 9 16 1015.9 1015.9 0.0
29/05:00am 17.0 11.7 1.8 36 6.8 NE 19 32 10 17 1015.7 1015.7 0.0
29/04:30am 17.0 11.5 1.8 36 6.8 NE 20 33 11 18 1015.9 1015.9 0.0
29/04:00am 16.8 11.9 1.7 36 6.7 NE 17 26 9 14 1016.3 1016.3 0.0
29/03:30am 16.7 11.4 2.0 37 6.6 NE 19 26 10 14 1016.5 1016.5 0.0
29/03:00am 16.8 11.5 2.0 37 6.6 NE 19 32 10 17 1016.9 1016.9 0.0
29/02:30am 16.7 12.2 2.0 37 6.6 NE 15 24 8 13 1017.3 1017.3 0.0
29/02:00am 17.1 12.1 1.5 35 6.9 NE 17 26 9 14 1017.6 1017.6 0.0
29/01:30am 16.7 11.7 1.6 36 6.7 NE 17 24 9 13 1017.4 1017.4 0.0
29/01:00am 16.6 12.1 1.9 37 6.6 NE 15 24 8 13 1017.5 1017.5 0.0
29/12:30am 16.2 11.7 2.2 39 6.3 NE 15 20 8 11 1018.1 1018.1 0.0
29/12:00am 16.2 12.5 2.2 39 6.3 NE 11 19 6 10 1018.3 1018.3 0.0
 
Date/Time
CST
Temp
°C
App
Temp
°C
Dew
Point
°C
Rel
Hum
%
Delta-T
°C
Wind Press
QNH
hPa
Press
MSL
hPa
Rain since
9am
mm
Dir  Spd
km/h
Gust
km/h
Spd
kts
Gust
kts
28/11:30pm 16.7 12.6 2.0 37 6.6 NE 13 26 7 14 1018.9 1018.9 0.0
28/11:00pm 16.4 12.7 2.1 38 6.4 NE 11 17 6 9 1018.8 1018.8 0.0
28/10:30pm 16.3 12.6 2.3 39 6.3 NE 11 15 6 8 1018.7 1018.7 0.0
28/10:00pm 16.9 13.1 1.8 36 6.7 NE 11 19 6 10 1019.0 1019.0 0.0
28/09:30pm 17.6 13.4 1.6 34 7.1 ENE 13 24 7 13 1019.6 1019.6 0.0
28/09:00pm 17.5 13.3 1.5 34 7.1 ENE 13 22 7 12 1019.9 1019.9 0.0
28/08:30pm 17.6 13.7 1.2 33 7.3 NE 11 17 6 9 1020.1 1020.1 0.0
28/08:00pm 17.4 13.9 1.0 33 7.2 NE 9 13 5 7 1020.0 1020.0 0.0
28/07:30pm 18.0 14.2 1.5 33 7.4 ENE 11 15 6 8 1019.5 1019.5 0.0
28/07:00pm 18.4 14.5 1.4 32 7.6 NE 11 17 6 9 1019.3 1019.3 0.0
28/06:30pm 18.8 15.4 1.8 32 7.7 NE 9 13 5 7 1019.2 1019.2 0.0
28/06:00pm 19.9 15.6 0.9 28 8.5 NE 13 24 7 13 1019.1 1019.1 0.0
28/05:30pm 20.2 15.7 2.1 30 8.3 NE 15 24 8 13 1019.1 1019.1 0.0
28/05:00pm 20.6 15.7 2.0 29 8.6 NE 17 32 9 17 1019.1 1019.1 0.0
28/04:30pm 20.8 16.4 2.6 30 8.5 NE 15 24 8 13 1019.2 1019.2 0.0
28/04:00pm 20.9 16.0 2.2 29 8.7 NNE 17 26 9 14 1019.3 1019.3 0.0
28/03:30pm 20.6 15.5 2.9 31 8.3 NNE 19 32 10 17 1019.7 1019.7 0.0
28/03:00pm 21.1 17.0 4.2 33 8.2 NE 15 26 8 14 1019.7 1019.7 0.0
28/02:30pm 20.7 16.0 3.4 32 8.2 NE 17 24 9 13 1020.0 1020.0 0.0
28/02:00pm 20.7 16.2 4.3 34 7.9 NNE 17 30 9 16 1020.5 1020.5 0.0
28/01:30pm 20.4 16.4 4.8 36 7.6 NE 15 24 8 13 1021.1 1021.1 0.0
28/01:00pm 19.8 15.2 3.9 35 7.6 NNE 17 30 9 16 1021.8 1021.8 0.0
28/12:30pm 19.4 15.2 3.6 35 7.4 NNE 15 26 8 14 1022.1 1022.1 0.0
28/12:00pm 18.5 13.9 3.6 37 7.0 NNE 17 26 9 14 1022.7 1022.7 0.0
28/11:30am 19.3 14.7 5.4 40 6.8 NE 19 32 10 17 1023.0 1023.0 0.0
28/11:00am 18.7 14.9 4.1 38 6.9 NE 13 28 7 15 1023.8 1023.8 0.0
28/10:30am 17.5 12.3 3.8 40 6.4 NNE 20 30 11 16 1024.2 1024.2 0.0
28/10:00am 18.0 13.7 5.2 43 6.2 NE 17 24 9 13 1024.6 1024.6 0.0
28/09:30am 16.7 11.7 3.4 41 6.1 NNE 19 32 10 17 1025.1 1025.1 0.0

Latest Capital City Observations: Canberra | Sydney | Melbourne | Brisbane | Adelaide | Perth | Hobart | Darwin

Other formats

Comma delimited format used in spreadsheet applications
http://www.bom.gov.au/fwo/IDS60901/IDS60901.94648.axf

JavaScript Object Notation format (JSON) in row-major order
http://www.bom.gov.au/fwo/IDS60901/IDS60901.94648.json

Data quality

Most of these data are generated automatically and are frequently updated. Quality checks on data are not normally performed. It is possible for incorrect values to appear. Refer to information at About Latest Weather Observations and please check the disclaimer before using these data.